createdAt,value
2023-05-25T00:00:10.901Z,8.60
2023-05-25T00:01:10.884Z,8.58
2023-05-25T00:02:10.918Z,8.58
2023-05-25T00:03:10.972Z,8.57
2023-05-25T00:04:10.973Z,8.56
2023-05-25T00:05:10.845Z,8.56
2023-05-25T00:06:10.817Z,8.56
2023-05-25T00:07:10.809Z,8.55
2023-05-25T00:08:10.803Z,8.55
2023-05-25T00:09:10.808Z,8.54
2023-05-25T00:10:10.776Z,8.53
2023-05-25T00:11:10.770Z,8.53
2023-05-25T00:12:10.743Z,8.53
2023-05-25T00:13:10.743Z,8.53
2023-05-25T00:14:10.730Z,8.52
2023-05-25T00:15:10.755Z,8.52
2023-05-25T00:16:10.696Z,8.52
2023-05-25T00:17:10.763Z,8.52
2023-05-25T00:18:10.674Z,8.51
2023-05-25T00:19:10.916Z,8.51
2023-05-25T00:20:10.820Z,8.50
2023-05-25T00:21:10.650Z,8.49
2023-05-25T00:22:10.613Z,8.48
2023-05-25T00:23:10.597Z,8.48
2023-05-25T00:24:10.595Z,8.47
2023-05-25T00:25:10.569Z,8.47
2023-05-25T00:26:10.555Z,8.46
2023-05-25T00:27:10.566Z,8.46
2023-05-25T00:28:10.531Z,8.45
2023-05-25T00:29:10.545Z,8.45
2023-05-25T00:30:10.532Z,8.44
2023-05-25T00:31:10.605Z,8.44
2023-05-25T00:32:10.493Z,8.43
2023-05-25T00:33:10.762Z,8.42
2023-05-25T00:34:10.459Z,8.41
2023-05-25T00:35:10.435Z,8.40
2023-05-25T00:36:10.426Z,8.38
2023-05-25T00:37:10.422Z,8.36
2023-05-25T00:38:10.406Z,8.34
2023-05-25T00:39:10.427Z,8.32
2023-05-25T00:40:10.383Z,8.30
2023-05-25T00:41:10.374Z,8.29
2023-05-25T00:42:10.355Z,8.27
2023-05-25T00:43:10.348Z,8.25
2023-05-25T00:44:10.335Z,8.24
2023-05-25T00:45:10.380Z,8.22
2023-05-25T00:46:10.336Z,8.21
2023-05-25T00:47:10.293Z,8.20
2023-05-25T00:48:10.375Z,8.18
2023-05-25T00:49:10.265Z,8.16
2023-05-25T00:50:10.256Z,8.14
2023-05-25T00:51:10.252Z,8.12
2023-05-25T00:52:10.227Z,8.10
2023-05-25T00:53:10.233Z,8.08
2023-05-25T00:54:10.210Z,8.07
2023-05-25T00:55:10.195Z,8.06
2023-05-25T00:56:10.175Z,8.06
2023-05-25T00:57:10.215Z,8.05
2023-05-25T00:58:10.148Z,8.04
2023-05-25T00:59:10.132Z,8.03
2023-05-25T01:00:10.120Z,8.04
2023-05-25T01:01:10.116Z,8.05
2023-05-25T01:02:10.225Z,8.06
2023-05-25T01:03:11.236Z,8.06
2023-05-25T01:04:10.120Z,8.05
2023-05-25T01:05:10.056Z,8.04
2023-05-25T01:06:10.043Z,8.04
2023-05-25T01:07:10.046Z,8.04
2023-05-25T01:08:10.054Z,8.03
2023-05-25T01:09:10.012Z,8.02
2023-05-25T01:10:10.009Z,8.00
2023-05-25T01:11:09.983Z,7.99
2023-05-25T01:12:09.980Z,7.97
2023-05-25T01:13:09.961Z,7.96
2023-05-25T01:14:09.973Z,7.94
2023-05-25T01:15:09.927Z,7.93
2023-05-25T01:16:09.971Z,7.92
2023-05-25T01:17:09.942Z,7.90
2023-05-25T01:18:09.894Z,7.89
2023-05-25T01:19:09.877Z,7.88
2023-05-25T01:20:11.667Z,7.86
2023-05-25T01:21:09.866Z,7.85
2023-05-25T01:22:09.863Z,7.83
2023-05-25T01:23:09.825Z,7.82
2023-05-25T01:24:09.810Z,7.82
2023-05-25T01:25:09.793Z,7.81
2023-05-25T01:26:09.819Z,7.81
2023-05-25T01:27:09.794Z,7.80
2023-05-25T01:28:09.766Z,7.80
2023-05-25T01:29:09.745Z,7.78
2023-05-25T01:30:09.759Z,7.77
2023-05-25T01:31:09.744Z,7.74
2023-05-25T01:32:09.752Z,7.70
2023-05-25T01:33:09.744Z,7.66
2023-05-25T01:34:09.692Z,7.63
2023-05-25T01:35:09.693Z,7.59
2023-05-25T01:36:09.659Z,7.55
2023-05-25T01:37:09.685Z,7.51
2023-05-25T01:38:09.635Z,7.47
2023-05-25T01:39:09.628Z,7.44
2023-05-25T01:40:09.617Z,7.41
2023-05-25T01:41:09.594Z,7.39
2023-05-25T01:42:09.598Z,7.37
2023-05-25T01:43:09.569Z,7.37
2023-05-25T01:44:09.554Z,7.37
2023-05-25T01:45:09.539Z,7.37
2023-05-25T01:46:09.545Z,7.37
2023-05-25T01:47:09.544Z,7.36
2023-05-25T01:48:09.533Z,7.36
2023-05-25T01:49:09.510Z,7.36
2023-05-25T01:50:09.498Z,7.35
2023-05-25T01:51:09.459Z,7.35
2023-05-25T01:52:09.495Z,7.36
2023-05-25T01:53:09.457Z,7.36
2023-05-25T01:54:09.428Z,7.36
2023-05-25T01:55:09.425Z,7.36
2023-05-25T01:56:09.423Z,7.36
2023-05-25T01:57:09.393Z,7.35
2023-05-25T01:58:09.380Z,7.34
2023-05-25T01:59:09.391Z,7.34
2023-05-25T02:00:09.358Z,7.34
2023-05-25T02:01:09.408Z,7.35
2023-05-25T02:02:09.324Z,7.35
2023-05-25T02:03:09.382Z,7.35
2023-05-25T02:04:09.347Z,7.34
2023-05-25T02:05:09.298Z,7.34
2023-05-25T02:06:09.295Z,7.34
2023-05-25T02:07:09.264Z,7.33
2023-05-25T02:08:09.243Z,7.33
2023-05-25T02:09:09.226Z,7.34
2023-05-25T02:10:09.221Z,7.34
2023-05-25T02:11:09.233Z,7.33
2023-05-25T02:12:09.193Z,7.32
2023-05-25T02:13:09.195Z,7.31
2023-05-25T02:14:09.174Z,7.30
2023-05-25T02:15:09.180Z,7.29
2023-05-25T02:16:09.159Z,7.28
2023-05-25T02:17:09.161Z,7.28
2023-05-25T02:18:09.112Z,7.27
2023-05-25T02:19:09.100Z,7.27
2023-05-25T02:20:09.191Z,7.27
2023-05-25T02:21:09.087Z,7.27
2023-05-25T02:22:09.066Z,7.28
2023-05-25T02:23:09.069Z,7.29
2023-05-25T02:24:09.042Z,7.30
2023-05-25T02:25:09.058Z,7.30
2023-05-25T02:26:09.026Z,7.30
2023-05-25T02:27:08.994Z,7.31
2023-05-25T02:28:08.990Z,7.31
2023-05-25T02:29:08.995Z,7.31
2023-05-25T02:30:08.970Z,7.31
2023-05-25T02:31:09.027Z,7.32
2023-05-25T02:32:08.929Z,7.33
2023-05-25T02:33:08.946Z,7.35
2023-05-25T02:34:08.907Z,7.37
2023-05-25T02:35:08.913Z,7.38
2023-05-25T02:36:08.904Z,7.39
2023-05-25T02:37:08.871Z,7.39
2023-05-25T02:38:08.872Z,7.40
2023-05-25T02:39:08.844Z,7.40
2023-05-25T02:40:08.841Z,7.41
2023-05-25T02:41:08.860Z,7.42
2023-05-25T02:42:08.812Z,7.44
2023-05-25T02:43:08.816Z,7.46
2023-05-25T02:44:08.797Z,7.49
2023-05-25T02:45:08.762Z,7.50
2023-05-25T02:46:08.770Z,7.51
2023-05-25T02:47:08.950Z,7.52
2023-05-25T02:48:08.760Z,7.52
2023-05-25T02:49:08.726Z,7.53
2023-05-25T02:50:08.702Z,7.53
2023-05-25T02:51:08.695Z,7.52
2023-05-25T02:52:08.679Z,7.51
2023-05-25T02:53:08.693Z,7.49
2023-05-25T02:54:08.658Z,7.48
2023-05-25T02:55:08.643Z,7.47
2023-05-25T02:56:08.643Z,7.47
2023-05-25T02:57:08.695Z,7.46
2023-05-25T02:58:08.595Z,7.46
2023-05-25T02:59:08.604Z,7.46
2023-05-25T03:00:08.588Z,7.46
2023-05-25T03:01:08.578Z,7.45
2023-05-25T03:02:08.563Z,7.44
2023-05-25T03:03:08.627Z,7.44
2023-05-25T03:04:08.599Z,7.42
2023-05-25T03:05:08.508Z,7.41
2023-05-25T03:06:08.518Z,7.39
2023-05-25T03:07:08.505Z,7.38
2023-05-25T03:08:08.474Z,7.36
2023-05-25T03:09:08.461Z,7.34
2023-05-25T03:10:08.470Z,7.33
2023-05-25T03:11:08.437Z,7.32
2023-05-25T03:12:08.426Z,7.30
2023-05-25T03:13:08.411Z,7.28
2023-05-25T03:14:08.388Z,7.28
2023-05-25T03:15:08.413Z,7.27
2023-05-25T03:16:08.440Z,7.26
2023-05-25T03:17:08.378Z,7.24
2023-05-25T03:18:08.347Z,7.21
2023-05-25T03:19:08.323Z,7.18
2023-05-25T03:20:08.361Z,7.14
2023-05-25T03:21:08.332Z,7.11
2023-05-25T03:22:08.316Z,7.08
2023-05-25T03:23:08.279Z,7.07
2023-05-25T03:24:08.289Z,7.06
2023-05-25T03:25:08.293Z,7.05
2023-05-25T03:26:08.239Z,7.04
2023-05-25T03:27:08.257Z,7.02
2023-05-25T03:28:08.214Z,7.00
2023-05-25T03:29:08.207Z,6.98
2023-05-25T03:30:08.192Z,6.98
2023-05-25T03:31:08.176Z,6.97
2023-05-25T03:32:08.192Z,6.97
2023-05-25T03:33:08.247Z,6.96
2023-05-25T03:34:08.149Z,6.94
2023-05-25T03:35:08.137Z,6.93
2023-05-25T03:36:08.120Z,6.93
2023-05-25T03:37:08.110Z,6.92
2023-05-25T03:38:08.100Z,6.91
2023-05-25T03:39:08.127Z,6.89
2023-05-25T03:40:08.068Z,6.88
2023-05-25T03:41:08.053Z,6.87
2023-05-25T03:42:08.033Z,6.87
2023-05-25T03:43:08.024Z,6.87
2023-05-25T03:44:08.036Z,6.89
2023-05-25T03:45:07.997Z,6.92
2023-05-25T03:46:08.068Z,6.94
2023-05-25T03:47:07.984Z,6.94
2023-05-25T03:48:07.957Z,6.94
2023-05-25T03:49:07.982Z,6.92
2023-05-25T03:50:07.941Z,6.91
2023-05-25T03:51:07.931Z,6.88
2023-05-25T03:52:07.917Z,6.87
2023-05-25T03:53:07.912Z,6.85
2023-05-25T03:54:07.940Z,6.84
2023-05-25T03:55:07.907Z,6.84
2023-05-25T03:56:07.884Z,6.84
2023-05-25T03:57:07.836Z,6.84
2023-05-25T03:58:07.825Z,6.83
2023-05-25T03:59:07.814Z,6.83
2023-05-25T04:00:07.827Z,6.83
2023-05-25T04:01:07.791Z,6.82
2023-05-25T04:02:07.849Z,6.82
2023-05-25T04:03:07.820Z,6.82
2023-05-25T04:04:07.987Z,6.81
2023-05-25T04:05:07.737Z,6.81
2023-05-25T04:06:07.745Z,6.81
2023-05-25T04:07:07.734Z,6.82
2023-05-25T04:08:07.695Z,6.84
2023-05-25T04:09:07.688Z,6.84
2023-05-25T04:10:07.690Z,6.85
2023-05-25T04:11:07.688Z,6.86
2023-05-25T04:12:07.680Z,6.88
2023-05-25T04:13:07.634Z,6.90
2023-05-25T04:14:07.636Z,6.93
2023-05-25T04:15:07.625Z,6.95
2023-05-25T04:16:09.551Z,6.96
2023-05-25T04:17:07.608Z,6.98
2023-05-25T04:18:07.678Z,6.99
2023-05-25T04:19:07.589Z,7.00
2023-05-25T04:20:07.651Z,7.00
2023-05-25T04:21:07.569Z,7.01
2023-05-25T04:22:07.527Z,7.02
2023-05-25T04:23:07.510Z,7.04
2023-05-25T04:24:07.500Z,7.07
2023-05-25T04:25:07.481Z,7.09
2023-05-25T04:26:07.488Z,7.12
2023-05-25T04:27:07.464Z,7.14
2023-05-25T04:28:07.463Z,7.16
2023-05-25T04:29:07.433Z,7.19
2023-05-25T04:30:07.457Z,7.21
2023-05-25T04:31:07.419Z,7.24
2023-05-25T04:32:07.409Z,7.27
2023-05-25T04:33:07.455Z,7.30
2023-05-25T04:34:07.365Z,7.32
2023-05-25T04:35:07.348Z,7.34
2023-05-25T04:36:07.352Z,7.36
2023-05-25T04:37:07.327Z,7.37
2023-05-25T04:38:07.316Z,7.39
2023-05-25T04:39:07.332Z,7.40
2023-05-25T04:40:07.305Z,7.43
2023-05-25T04:41:07.294Z,7.45
2023-05-25T04:42:07.262Z,7.49
2023-05-25T04:43:07.245Z,7.52
2023-05-25T04:44:10.194Z,7.54
2023-05-25T04:45:07.222Z,7.56
2023-05-25T04:46:07.274Z,7.58
2023-05-25T04:47:07.273Z,7.60
2023-05-25T04:48:07.258Z,7.63
2023-05-25T04:49:07.171Z,7.65
2023-05-25T04:50:07.170Z,7.67
2023-05-25T04:51:07.139Z,7.70
2023-05-25T04:52:07.160Z,7.72
2023-05-25T04:53:07.137Z,7.75
2023-05-25T04:54:07.126Z,7.76
2023-05-25T04:55:07.130Z,7.77
2023-05-25T04:56:07.078Z,7.79
2023-05-25T04:57:07.070Z,7.81
2023-05-25T04:58:07.075Z,7.85
2023-05-25T04:59:07.051Z,7.88
2023-05-25T05:00:07.027Z,7.90
2023-05-25T05:01:07.023Z,7.93
2023-05-25T05:02:07.005Z,7.95
2023-05-25T05:03:07.101Z,7.97
2023-05-25T05:04:07.055Z,7.99
2023-05-25T05:05:06.961Z,8.01
2023-05-25T05:06:06.951Z,8.03
2023-05-25T05:07:06.931Z,8.06
2023-05-25T05:08:06.925Z,8.10
2023-05-25T05:09:06.932Z,8.12
2023-05-25T05:10:06.899Z,8.14
2023-05-25T05:11:06.906Z,8.16
2023-05-25T05:12:06.874Z,8.17
2023-05-25T05:13:06.866Z,8.18
2023-05-25T05:14:06.850Z,8.20
2023-05-25T05:15:06.854Z,8.20
2023-05-25T05:16:06.882Z,8.20
2023-05-25T05:17:06.821Z,8.21
2023-05-25T05:18:06.828Z,8.23
2023-05-25T05:19:06.782Z,8.25
2023-05-25T05:20:06.857Z,8.27
2023-05-25T05:21:06.786Z,8.30
2023-05-25T05:22:06.738Z,8.33
2023-05-25T05:23:06.745Z,8.37
2023-05-25T05:24:06.721Z,8.43
2023-05-25T05:25:06.704Z,8.48
2023-05-25T05:26:06.735Z,8.53
2023-05-25T05:27:06.678Z,8.56
2023-05-25T05:28:06.676Z,8.59
2023-05-25T05:29:06.657Z,8.62
2023-05-25T05:30:06.640Z,8.65
2023-05-25T05:31:06.634Z,8.69
2023-05-25T05:32:06.629Z,8.75
2023-05-25T05:33:06.667Z,8.80
2023-05-25T05:34:06.682Z,8.83
2023-05-25T05:35:06.569Z,8.85
2023-05-25T05:36:06.568Z,8.86
2023-05-25T05:37:06.559Z,8.89
2023-05-25T05:38:06.568Z,8.93
2023-05-25T05:39:06.524Z,8.98
2023-05-25T05:40:06.504Z,9.03
2023-05-25T05:41:06.491Z,9.08
2023-05-25T05:42:06.507Z,9.10
2023-05-25T05:43:06.476Z,9.13
2023-05-25T05:44:06.473Z,9.18
2023-05-25T05:45:06.456Z,9.24
2023-05-25T05:46:06.536Z,9.28
2023-05-25T05:47:06.420Z,9.33
2023-05-25T05:48:06.466Z,9.36
2023-05-25T05:49:06.395Z,9.39
2023-05-25T05:50:06.406Z,9.43
2023-05-25T05:51:06.390Z,9.48
2023-05-25T05:52:06.346Z,9.53
2023-05-25T05:53:06.338Z,9.56
2023-05-25T05:54:06.340Z,9.58
2023-05-25T05:55:06.347Z,9.62
2023-05-25T05:56:06.325Z,9.66
2023-05-25T05:57:06.285Z,9.68
2023-05-25T05:58:06.301Z,9.72
2023-05-25T05:59:06.263Z,9.77
2023-05-25T06:00:06.250Z,9.83
2023-05-25T06:01:06.264Z,9.91
2023-05-25T06:02:06.254Z,9.93
2023-05-25T06:03:06.252Z,9.95
2023-05-25T06:04:06.211Z,9.99
2023-05-25T06:05:06.264Z,10.04
2023-05-25T06:06:06.238Z,10.09
2023-05-25T06:07:06.176Z,10.18
2023-05-25T06:08:06.880Z,10.23
2023-05-25T06:09:06.133Z,10.26
2023-05-25T06:10:06.126Z,10.30
2023-05-25T06:11:06.119Z,10.34
2023-05-25T06:12:06.105Z,10.36
2023-05-25T06:13:06.106Z,10.35
2023-05-25T06:14:06.069Z,10.35
2023-05-25T06:15:06.062Z,10.38
2023-05-25T06:16:06.094Z,10.41
2023-05-25T06:17:06.268Z,10.44
2023-05-25T06:18:06.110Z,10.46
2023-05-25T06:19:06.021Z,10.49
2023-05-25T06:20:06.000Z,10.55
2023-05-25T06:21:05.976Z,10.66
2023-05-25T06:22:05.967Z,10.79
2023-05-25T06:23:05.965Z,10.91
2023-05-25T06:24:05.957Z,11.00
2023-05-25T06:25:05.934Z,11.04
2023-05-25T06:26:05.966Z,11.03
2023-05-25T06:27:05.934Z,10.99
2023-05-25T06:28:05.886Z,10.95
2023-05-25T06:29:05.881Z,10.94
2023-05-25T06:30:05.878Z,10.97
2023-05-25T06:31:05.858Z,11.03
2023-05-25T06:32:05.859Z,11.08
2023-05-25T06:33:05.841Z,11.11
2023-05-25T06:34:05.800Z,11.14
2023-05-25T06:35:07.979Z,11.22
2023-05-25T06:36:05.802Z,11.32
2023-05-25T06:37:05.784Z,11.37
2023-05-25T06:38:05.803Z,11.39
2023-05-25T06:39:05.744Z,11.39
2023-05-25T06:40:05.742Z,11.43
2023-05-25T06:41:05.733Z,11.51
2023-05-25T06:42:05.716Z,11.62
2023-05-25T06:43:05.711Z,11.75
2023-05-25T06:44:05.676Z,11.84
2023-05-25T06:45:05.686Z,11.86
2023-05-25T06:46:05.672Z,11.86
2023-05-25T06:47:05.657Z,11.91
2023-05-25T06:48:05.685Z,11.95
2023-05-25T06:49:05.610Z,11.92
2023-05-25T06:50:05.616Z,11.84
2023-05-25T06:51:05.596Z,11.83
2023-05-25T06:52:05.577Z,11.92
2023-05-25T06:53:05.578Z,12.02
2023-05-25T06:54:05.588Z,12.03
2023-05-25T06:55:05.558Z,11.98
2023-05-25T06:56:05.526Z,11.95
2023-05-25T06:57:05.506Z,12.02
2023-05-25T06:58:05.494Z,12.17
2023-05-25T06:59:05.520Z,12.37
2023-05-25T07:00:05.523Z,12.52
2023-05-25T07:01:05.473Z,12.64
2023-05-25T07:02:05.444Z,12.76
2023-05-25T07:03:05.476Z,12.82
2023-05-25T07:04:05.430Z,12.76
2023-05-25T07:05:05.530Z,12.68
2023-05-25T07:06:05.413Z,12.66
2023-05-25T07:07:05.389Z,12.74
2023-05-25T07:08:05.391Z,12.87
2023-05-25T07:09:05.356Z,12.97
2023-05-25T07:10:05.366Z,13.02
2023-05-25T07:11:05.366Z,13.05
2023-05-25T07:12:05.322Z,13.07
2023-05-25T07:13:05.318Z,13.15
2023-05-25T07:14:05.305Z,13.25
2023-05-25T07:15:05.292Z,13.31
2023-05-25T07:16:05.328Z,13.34
2023-05-25T07:17:05.254Z,13.38
2023-05-25T07:18:05.321Z,13.40
2023-05-25T07:19:05.234Z,13.33
2023-05-25T07:20:05.313Z,13.21
2023-05-25T07:21:05.230Z,12.96
2023-05-25T07:22:05.191Z,12.74
2023-05-25T07:23:05.179Z,12.71
2023-05-25T07:24:05.193Z,12.80
2023-05-25T07:25:05.188Z,12.88
2023-05-25T07:26:06.105Z,12.88
2023-05-25T07:27:05.144Z,12.89
2023-05-25T07:28:05.126Z,12.91
2023-05-25T07:29:05.116Z,12.99
2023-05-25T07:30:05.093Z,13.06
2023-05-25T07:31:05.139Z,13.09
2023-05-25T07:32:05.086Z,13.11
2023-05-25T07:33:05.092Z,13.16
2023-05-25T07:34:05.065Z,13.17
2023-05-25T07:35:05.040Z,13.18
2023-05-25T07:36:05.023Z,13.25
2023-05-25T07:37:05.011Z,13.33
2023-05-25T07:38:05.021Z,13.46
2023-05-25T07:39:04.992Z,13.54
2023-05-25T07:40:04.973Z,13.55
2023-05-25T07:41:05.008Z,13.57
2023-05-25T07:42:04.967Z,13.53
2023-05-25T07:43:06.257Z,13.45
2023-05-25T07:44:04.946Z,13.42
2023-05-25T07:45:04.920Z,13.47
2023-05-25T07:46:04.897Z,13.57
2023-05-25T07:47:04.931Z,13.74
2023-05-25T07:48:04.944Z,14.05
2023-05-25T07:49:04.884Z,14.34
2023-05-25T07:50:04.845Z,14.51
2023-05-25T07:51:04.859Z,14.59
2023-05-25T07:52:04.844Z,14.62
2023-05-25T07:53:04.812Z,14.58
2023-05-25T07:54:04.810Z,14.53
2023-05-25T07:55:04.835Z,14.40
2023-05-25T07:56:04.769Z,14.14
2023-05-25T07:57:04.778Z,13.93
2023-05-25T07:58:04.749Z,13.85
2023-05-25T07:59:04.745Z,13.82
2023-05-25T08:00:04.724Z,13.85
2023-05-25T08:01:04.731Z,13.91
2023-05-25T08:02:04.777Z,13.97
2023-05-25T08:03:04.790Z,14.01
2023-05-25T08:04:04.774Z,14.03
2023-05-25T08:05:04.711Z,14.05
2023-05-25T08:06:04.698Z,14.12
2023-05-25T08:07:04.676Z,14.19
2023-05-25T08:08:04.635Z,14.19
2023-05-25T08:09:04.635Z,14.20
2023-05-25T08:10:04.616Z,14.18
2023-05-25T08:11:04.599Z,14.19
2023-05-25T08:12:27.223Z,14.18
2023-05-25T08:13:04.600Z,14.14
2023-05-25T08:14:04.562Z,14.11
2023-05-25T08:15:04.536Z,14.08
2023-05-25T08:16:04.541Z,13.97
2023-05-25T08:17:04.660Z,13.85
2023-05-25T08:18:04.644Z,13.83
2023-05-25T08:19:04.483Z,13.97
2023-05-25T08:20:04.512Z,14.10
2023-05-25T08:21:04.462Z,14.12
2023-05-25T08:22:04.443Z,14.05
2023-05-25T08:23:04.453Z,13.91
2023-05-25T08:24:04.452Z,13.81
2023-05-25T08:25:04.399Z,13.80
2023-05-25T08:26:15.589Z,13.86
2023-05-25T08:27:04.386Z,13.95
2023-05-25T08:28:04.402Z,14.19
2023-05-25T08:29:04.352Z,14.39
2023-05-25T08:30:04.362Z,14.46
2023-05-25T08:31:04.362Z,14.49
2023-05-25T08:32:04.334Z,14.46
2023-05-25T08:33:04.334Z,14.43
2023-05-25T08:34:04.286Z,14.39
2023-05-25T08:35:04.299Z,14.31
2023-05-25T08:36:04.279Z,14.21
2023-05-25T08:37:04.251Z,14.09
2023-05-25T08:38:04.259Z,14.01
2023-05-25T08:39:04.237Z,13.98
2023-05-25T08:40:04.225Z,13.98
2023-05-25T08:41:04.221Z,13.98
2023-05-25T08:42:04.200Z,13.94
2023-05-25T08:43:04.175Z,13.89
2023-05-25T08:44:04.191Z,13.90
2023-05-25T08:45:04.173Z,13.97
2023-05-25T08:46:04.148Z,14.06
2023-05-25T08:47:04.142Z,14.09
2023-05-25T08:48:04.166Z,14.05
2023-05-25T08:49:04.214Z,14.01
2023-05-25T08:50:04.113Z,14.02
2023-05-25T08:51:04.089Z,14.03
2023-05-25T08:52:04.070Z,14.06
2023-05-25T08:53:04.076Z,14.14
2023-05-25T08:54:04.026Z,14.18
2023-05-25T08:55:04.029Z,14.16
2023-05-25T08:56:04.017Z,14.15
2023-05-25T08:57:04.010Z,14.18
2023-05-25T08:58:03.989Z,14.23
2023-05-25T08:59:06.578Z,14.29
2023-05-25T09:00:03.985Z,14.31
2023-05-25T09:01:03.949Z,14.31
2023-05-25T09:02:03.964Z,14.32
2023-05-25T09:03:03.971Z,14.35
2023-05-25T09:04:03.955Z,14.45
2023-05-25T09:05:03.920Z,14.54
2023-05-25T09:06:03.884Z,14.54
2023-05-25T09:07:10.385Z,14.48
2023-05-25T09:08:03.863Z,14.45
2023-05-25T09:09:03.894Z,14.44
2023-05-25T09:10:03.879Z,14.45
2023-05-25T09:11:03.850Z,14.55
2023-05-25T09:12:03.821Z,14.74
2023-05-25T09:13:16.567Z,14.91
2023-05-25T09:14:03.825Z,14.97
2023-05-25T09:15:03.762Z,14.93
2023-05-25T09:16:03.775Z,14.93
2023-05-25T09:17:03.804Z,15.06
2023-05-25T09:18:05.310Z,15.20
2023-05-25T09:19:03.726Z,15.43
2023-05-25T09:20:03.767Z,15.64
2023-05-25T09:21:03.726Z,15.71
2023-05-25T09:22:14.766Z,15.68
2023-05-25T09:23:03.704Z,15.78
2023-05-25T09:24:03.674Z,15.90
2023-05-25T09:25:03.657Z,15.93
2023-05-25T09:26:03.651Z,16.00
2023-05-25T09:27:03.629Z,16.06
2023-05-25T09:28:21.311Z,16.08
2023-05-25T09:29:03.636Z,16.00
2023-05-25T09:30:03.599Z,15.96
2023-05-25T09:31:03.592Z,16.02
2023-05-25T09:32:03.692Z,16.01
2023-05-25T09:33:03.603Z,15.92
2023-05-25T09:34:03.574Z,15.86
2023-05-25T09:35:03.575Z,15.93
2023-05-25T09:36:03.546Z,16.11
2023-05-25T09:37:03.677Z,16.37
2023-05-25T09:38:03.646Z,16.67
2023-05-25T09:39:03.707Z,16.90
2023-05-25T09:40:03.525Z,17.06
2023-05-25T09:41:03.466Z,17.15
2023-05-25T09:42:03.466Z,17.21
2023-05-25T09:43:03.461Z,17.38
2023-05-25T09:44:11.018Z,17.56
2023-05-25T09:45:03.434Z,17.64
2023-05-25T09:46:03.466Z,17.57
2023-05-25T09:47:03.404Z,17.41
2023-05-25T09:48:03.443Z,17.10
2023-05-25T09:49:03.391Z,16.66
2023-05-25T09:50:03.361Z,16.41
2023-05-25T09:51:03.370Z,16.43
2023-05-25T09:52:03.367Z,16.56
2023-05-25T09:53:03.379Z,16.55
2023-05-25T09:54:03.327Z,16.33
2023-05-25T09:55:03.315Z,16.08
2023-05-25T09:56:04.340Z,16.11
2023-05-25T09:57:03.291Z,16.35
2023-05-25T09:58:03.305Z,16.56
2023-05-25T09:59:03.283Z,16.54
2023-05-25T10:00:03.262Z,16.45
2023-05-25T10:01:03.262Z,16.53
2023-05-25T10:02:03.299Z,16.92
2023-05-25T10:03:03.290Z,17.52
2023-05-25T10:04:05.229Z,17.99
2023-05-25T10:05:03.372Z,18.02
2023-05-25T10:06:03.235Z,17.78
2023-05-25T10:07:03.175Z,17.46
2023-05-25T10:08:03.164Z,17.09
2023-05-25T10:09:03.156Z,16.75
2023-05-25T10:10:03.158Z,16.62
2023-05-25T10:11:03.139Z,16.77
2023-05-25T10:12:03.117Z,16.91
2023-05-25T10:13:03.098Z,16.98
2023-05-25T10:14:03.119Z,16.99
2023-05-25T10:15:03.092Z,17.01
2023-05-25T10:16:03.145Z,17.09
2023-05-25T10:17:03.051Z,17.35
2023-05-25T10:18:03.115Z,17.78
2023-05-25T10:19:03.072Z,18.05
2023-05-25T10:20:03.127Z,18.13
2023-05-25T10:21:03.618Z,18.03
2023-05-25T10:22:03.028Z,17.82
2023-05-25T10:23:02.988Z,17.50
2023-05-25T10:24:03.000Z,17.11
2023-05-25T10:25:03.016Z,16.78
2023-05-25T10:26:02.993Z,16.67
2023-05-25T10:27:10.915Z,16.70
2023-05-25T10:28:02.969Z,16.69
2023-05-25T10:29:02.919Z,16.65
2023-05-25T10:30:02.939Z,16.61
2023-05-25T10:31:02.928Z,16.77
2023-05-25T10:32:02.961Z,17.30
2023-05-25T10:33:02.940Z,17.59
2023-05-25T10:34:02.910Z,17.58
2023-05-25T10:35:02.891Z,17.52
2023-05-25T10:36:10.667Z,17.55
2023-05-25T10:37:02.854Z,17.57
2023-05-25T10:38:02.815Z,17.45
2023-05-25T10:39:03.302Z,17.26
2023-05-25T10:40:02.864Z,17.11
2023-05-25T10:41:02.778Z,16.97
2023-05-25T10:42:02.789Z,16.76
2023-05-25T10:43:02.756Z,16.70
2023-05-25T10:44:02.742Z,16.77
2023-05-25T10:45:02.774Z,16.97
2023-05-25T10:46:02.748Z,17.45
2023-05-25T10:47:02.764Z,17.92
2023-05-25T10:48:02.836Z,18.05
2023-05-25T10:49:02.860Z,17.97
2023-05-25T10:50:02.786Z,17.93
2023-05-25T10:51:02.749Z,18.03
2023-05-25T10:52:02.693Z,18.20
2023-05-25T10:53:02.784Z,18.23
2023-05-25T10:54:02.669Z,18.01
2023-05-25T10:55:02.639Z,17.63
2023-05-25T10:56:02.636Z,17.33
2023-05-25T10:57:02.614Z,17.08
2023-05-25T10:58:02.626Z,16.96
2023-05-25T10:59:02.581Z,17.12
2023-05-25T11:00:02.589Z,17.56
2023-05-25T11:01:02.698Z,18.16
2023-05-25T11:02:02.605Z,18.65
2023-05-25T11:03:02.593Z,19.14
2023-05-25T11:04:02.605Z,19.38
2023-05-25T11:05:02.535Z,19.28
2023-05-25T11:06:02.523Z,19.03
2023-05-25T11:07:02.524Z,18.92
2023-05-25T11:08:02.488Z,19.15
2023-05-25T11:09:02.489Z,19.37
2023-05-25T11:10:02.502Z,19.32
2023-05-25T11:11:02.516Z,19.08
2023-05-25T11:12:02.517Z,18.89
2023-05-25T11:13:02.470Z,19.06
2023-05-25T11:14:02.479Z,19.25
2023-05-25T11:15:02.428Z,19.26
2023-05-25T11:16:02.468Z,19.30
2023-05-25T11:17:02.502Z,19.17
2023-05-25T11:18:02.450Z,18.94
2023-05-25T11:19:02.398Z,18.73
2023-05-25T11:20:02.616Z,18.38
2023-05-25T11:21:02.595Z,18.02
2023-05-25T11:22:02.387Z,17.76
2023-05-25T11:23:02.377Z,17.73
2023-05-25T11:24:02.342Z,17.91
2023-05-25T11:25:02.319Z,18.01
2023-05-25T11:26:02.333Z,18.11
2023-05-25T11:27:02.317Z,18.39
2023-05-25T11:28:02.314Z,18.77
2023-05-25T11:29:02.310Z,19.12
2023-05-25T11:30:02.308Z,19.47
2023-05-25T11:31:02.337Z,19.67
2023-05-25T11:32:02.268Z,19.58
2023-05-25T11:33:02.333Z,19.22
2023-05-25T11:34:02.232Z,18.70
2023-05-25T11:35:02.236Z,18.33
2023-05-25T11:36:02.223Z,18.44
2023-05-25T11:37:02.204Z,18.89
2023-05-25T11:38:02.194Z,19.45
2023-05-25T11:39:06.741Z,19.84
2023-05-25T11:40:02.169Z,19.94
2023-05-25T11:41:02.170Z,19.97
2023-05-25T11:42:02.194Z,19.77
2023-05-25T11:43:02.141Z,19.35
2023-05-25T11:44:02.164Z,19.07
2023-05-25T11:45:02.151Z,18.93
2023-05-25T11:46:02.185Z,18.64
2023-05-25T11:47:02.224Z,18.36
2023-05-25T11:48:02.109Z,18.33
2023-05-25T11:49:02.135Z,18.52
2023-05-25T11:50:02.148Z,18.82
2023-05-25T11:51:02.098Z,19.01
2023-05-25T11:52:02.088Z,19.07
2023-05-25T11:53:02.064Z,19.08
2023-05-25T11:54:02.159Z,19.25
2023-05-25T11:55:02.051Z,19.56
2023-05-25T11:56:07.935Z,19.70
2023-05-25T11:57:02.312Z,19.64
2023-05-25T11:58:02.038Z,19.57
2023-05-25T11:59:02.026Z,19.59
2023-05-25T12:00:02.043Z,19.72
2023-05-25T12:01:01.960Z,19.92
2023-05-25T12:02:02.102Z,20.11
2023-05-25T12:03:02.066Z,20.22
2023-05-25T12:04:02.059Z,20.24
2023-05-25T12:05:02.223Z,20.25
2023-05-25T12:06:01.923Z,20.16
2023-05-25T12:07:01.940Z,19.94
2023-05-25T12:08:01.959Z,19.67
2023-05-25T12:09:01.899Z,19.53
2023-05-25T12:10:01.899Z,19.44
2023-05-25T12:11:01.885Z,19.36
2023-05-25T12:12:01.879Z,19.45
2023-05-25T12:13:01.857Z,19.73
2023-05-25T12:14:01.874Z,19.83
2023-05-25T12:15:01.832Z,19.49
2023-05-25T12:16:01.831Z,19.09
2023-05-25T12:17:01.870Z,18.95
2023-05-25T12:18:01.983Z,19.05
2023-05-25T12:19:01.861Z,19.13
2023-05-25T12:20:01.868Z,19.03
2023-05-25T12:21:01.796Z,19.04
2023-05-25T12:22:01.767Z,19.19
2023-05-25T12:23:01.781Z,19.25
2023-05-25T12:24:01.757Z,19.11
2023-05-25T12:25:01.737Z,18.85
2023-05-25T12:26:01.824Z,18.63
2023-05-25T12:27:01.769Z,18.47
2023-05-25T12:28:01.715Z,18.30
2023-05-25T12:29:01.695Z,18.10
2023-05-25T12:30:01.761Z,17.99
2023-05-25T12:31:01.761Z,18.00
2023-05-25T12:32:01.686Z,18.00
2023-05-25T12:33:02.767Z,17.98
2023-05-25T12:34:01.639Z,18.01
2023-05-25T12:35:01.640Z,18.09
2023-05-25T12:36:01.619Z,18.12
2023-05-25T12:37:01.654Z,18.07
2023-05-25T12:38:01.596Z,17.88
2023-05-25T12:39:01.589Z,17.63
2023-05-25T12:40:01.601Z,17.39
2023-05-25T12:41:01.565Z,17.16
2023-05-25T12:42:01.549Z,16.99
2023-05-25T12:43:01.565Z,16.89
2023-05-25T12:44:01.539Z,16.85
2023-05-25T12:45:01.522Z,16.91
2023-05-25T12:46:01.555Z,17.04
2023-05-25T12:47:01.558Z,17.21
2023-05-25T12:48:02.411Z,17.39
2023-05-25T12:49:01.481Z,17.57
2023-05-25T12:50:01.469Z,17.73
2023-05-25T12:51:01.431Z,17.83
2023-05-25T12:52:01.420Z,17.86
2023-05-25T12:53:01.415Z,17.86
2023-05-25T12:54:01.431Z,17.86
2023-05-25T12:55:01.402Z,17.82
2023-05-25T12:56:01.371Z,17.68
2023-05-25T12:57:01.438Z,17.47
2023-05-25T12:58:01.369Z,17.35
2023-05-25T12:59:01.334Z,17.36
2023-05-25T13:00:01.354Z,17.43
2023-05-25T13:01:01.315Z,17.51
2023-05-25T13:02:01.325Z,17.53
2023-05-25T13:03:01.341Z,17.40
2023-05-25T13:04:01.289Z,17.24